x

La Mancha Beach, Mexico (lmbv4) Weather Station

2:00pm - Wed 28th Sep 2016 All times are CDT. -5 hours from GMT.

  • Wind
    7mph, 11mph gusts
  • Air Temp 84°f
  • Sea Pressure 1013.9mb
  • La Mancha Beach, Mexico
  • La Mancha Beach, Mexico

More Historic Weather Station data

Upgrade to MSW Pro to gain access to the past 30 days of data for over 8000 Wavebouys and Weather Stations around the globe.

Join Pro

Comparision Forecast

View Surf forecast
   
Wed 09/28 2:00pm 7 11 mph 1013.9mb 84f
1:00pm 3 6 mph 1014.8mb 84f
12:00pm 5 7 mph 1015.5mb 83f
11:00am 3 5 mph 1015.2mb 82f
10:00am  -  2 mph 1015.1mb 79f
9:00am 3
mph
1014.6mb 76f
8:00am  -  1 mph 1013.5mb 76f
7:00am 2 3 mph 1013mb 77f
6:00am 2 6 mph 1012.7mb 76f
5:00am  -  1 mph 1012.7mb 76f
4:00am 1 6 mph 1012.7mb 76f
3:00am  -  1 mph 1012.9mb 76f
2:00am 3 5 mph 1012.9mb 76f
1:00am 5 6 mph 1013mb 77f
12:00am 1 3 mph 1013.1mb 78f
Tue 09/27 11:00pm 5 6 mph 1013mb 79f
10:00pm 5 6 mph 1012.6mb 79f
9:00pm 3
mph
1011.7mb 80f
8:00pm  -  2 mph 1010.8mb 81f
7:00pm 3 5 mph 1010.1mb 82f
6:00pm 6 8 mph 1009.5mb 83f
5:00pm 7 8 mph 1009.6mb 83f
4:00pm 5 6 mph 1009.8mb 83f
3:00pm 6 7 mph 1010.5mb 83f
2:00pm 5 6 mph 1011.3mb 83f
1:00pm 7 8 mph 1012mb 82f
12:00pm 3 5 mph 1012.6mb 82f
11:00am 3 5 mph 1012.9mb 80f
10:00am  -  1 mph 1012.6mb 77f
9:00am 2 3 mph 1011.9mb 75f
8:00am 1 3 mph 1011.1mb 75f
7:00am 1 2 mph 1011.2mb 76f
6:00am 5 7 mph 1010.7mb 76f
5:00am 8 13 mph 1010.4mb 79f
4:00am 2 3 mph 1010.4mb 78f
3:00am 1 2 mph 1010.5mb 78f
2:00am 3
mph
1010.7mb 77f
1:00am 2 3 mph 1011.1mb 78f
12:00am 2
mph
1012mb 78f
Mon 09/26 11:00pm 2 5 mph 1012.4mb 79f
10:00pm 2 5 mph 1012.4mb 78f
9:00pm 3 5 mph 1011.1mb 82f
8:00pm 10 15 mph 1010.1mb 83f
7:00pm 9 13 mph 1009.8mb 82f
6:00pm 11 18 mph 1009.4mb 82f
5:00pm 13 20 mph 1009.1mb 83f
4:00pm 17 22 mph 1009.6mb 83f
3:00pm 7 13 mph 1010.1mb 83f
2:00pm 9 13 mph 1010.9mb 83f
1:00pm 5 7 mph 1011.9mb 83f
12:00pm 6 10 mph 1012.5mb 84f
11:00am 2 5 mph 1012.6mb 83f
10:00am 5 7 mph 1012.3mb 83f
9:00am 2 3 mph 1011.6mb 81f
8:00am 3 5 mph 1010.4mb 76f
7:00am 3 5 mph 1010.2mb 75f
6:00am 5 6 mph 1010.3mb 76f
5:00am 1 2 mph 1010mb 76f
4:00am 2 3 mph 1009.9mb 75f
3:00am 3
mph
1010.9mb 75f
2:00am 3
mph
1011.2mb 75f
1:00am 2 3 mph 1012mb 76f
12:00am 3 5 mph 1012.3mb 76f
Sun 09/25 11:00pm 14 16 mph 1012.1mb 82f
10:00pm 13 14 mph 1011.7mb 83f
9:00pm 13 14 mph 1010.8mb 84f
8:00pm  -  mph 1009.7mb 82f
7:00pm 2 3 mph 1009.4mb 82f
6:00pm 3 5 mph 1009.7mb 84f
5:00pm 5 8 mph 1010.5mb 84f
4:00pm 8 11 mph 1010.6mb 85f
3:00pm 8 9 mph 1010.9mb 85f
2:00pm 7 8 mph 1011.4mb 85f
1:00pm 7 8 mph 1011.9mb 84f
12:00pm 5 6 mph 1012mb 84f
11:00am 3 5 mph 1012mb 83f
10:00am  -  3 mph 1012.2mb 80f
9:00am  -  1 mph 1012.5mb 77f
8:00am 3 6 mph 1012.2mb 77f
7:00am 3 6 mph 1012.5mb 76f
6:00am 5 8 mph 1012.1mb 75f
5:00am 3 5 mph 1012.2mb 75f
4:00am 3 5 mph 1011.9mb 75f
3:00am 3
mph
1012.5mb 74f
2:00am 3 5 mph 1012.4mb 77f
1:00am 3 6 mph 1012.7mb 77f
12:00am 3 5 mph 1013.5mb 78f
Sat 09/24 11:00pm 3
mph
1013.7mb 77f
10:00pm 3
mph
1013.1mb 79f
9:00pm 3
mph
1012.9mb 78f